Time;durP1;ratioP1;P1;durP2;ratioP2;P2;SDS_P1;SDS_P2;PMS_P1;PMS_P2;Temp;Humidity;BMP_temperature;BMP_pressure;BME280_temperature;BME280_humidity;BME280_pressure;Samples;Min_cycle;Max_cycle;Signal;HPM_P1;HPM_P2
2022/04/22 00:01:28;;;;;;;0.00;0.00;;;10.60;99.90;;;;;;5126112;28;20119;-71
2022/04/22 00:03:54;;;;;;;0.00;0.00;;;10.50;99.90;;;;;;5126838;28;20012;-70
2022/04/22 00:06:20;;;;;;;;;;;10.50;99.90;;;;;;5132538;28;20026;-71
2022/04/22 00:08:45;;;;;;;0.00;0.00;;;10.50;99.90;;;;;;5124254;28;19924;-71
2022/04/22 00:11:29;;;;;;;0.00;0.00;;;10.50;99.90;;;;;;5137280;28;20031;-71
2022/04/22 00:13:57;;;;;;;0.00;0.00;;;10.40;99.90;;;;;;5121529;28;20027;-71
2022/04/22 00:16:24;;;;;;;0.00;0.00;;;10.40;99.90;;;;;;5127473;28;20004;-70
2022/04/22 00:18:50;;;;;;;0.00;0.00;;;10.30;99.90;;;;;;5112353;28;20040;-71
2022/04/22 00:21:15;;;;;;;0.00;0.00;;;10.20;99.90;;;;;;5127688;28;20036;-71
2022/04/22 00:23:41;;;;;;;0.00;0.00;;;10.20;99.90;;;;;;5129866;28;20038;-71
2022/04/22 00:26:07;;;;;;;0.00;0.00;;;10.10;99.90;;;;;;5131222;28;20016;-70
2022/04/22 00:28:32;;;;;;;0.00;0.00;;;10.10;99.90;;;;;;5131920;28;20100;-71
2022/04/22 00:30:58;;;;;;;0.00;0.00;;;10.10;99.90;;;;;;5126895;28;20072;-71
2022/04/22 00:33:24;;;;;;;0.00;0.00;;;10.00;99.90;;;;;;5126486;28;20043;-70
2022/04/22 00:35:49;;;;;;;0.00;0.00;;;10.00;99.90;;;;;;5129000;28;20667;-70
2022/04/22 00:38:15;;;;;;;0.00;0.00;;;10.00;99.90;;;;;;5130260;28;20031;-71
2022/04/22 00:40:42;;;;;;;0.00;0.00;;;10.00;99.90;;;;;;5123309;28;20024;-71
2022/04/22 00:43:18;;;;;;;0.00;0.00;;;10.00;99.90;;;;;;5110670;28;20024;-71
2022/04/22 00:45:45;;;;;;;0.00;0.00;;;9.90;99.90;;;;;;5133354;28;20034;-70
2022/04/22 00:48:11;;;;;;;0.00;0.00;;;9.90;99.90;;;;;;5134806;28;20039;-70
2022/04/22 00:50:38;;;;;;;;;;;9.90;99.90;;;;;;5133053;28;20039;-70
2022/04/22 00:53:04;;;;;;;0.00;0.00;;;9.90;99.90;;;;;;5128481;28;19912;-70
2022/04/22 00:55:30;;;;;;;;;;;9.80;99.90;;;;;;5131301;28;20301;-70
2022/04/22 00:57:56;;;;;;;0.00;0.00;;;9.80;99.90;;;;;;5130861;28;19935;-70
2022/04/22 01:00:21;;;;;;;0.00;0.00;;;9.80;99.90;;;;;;5129286;28;20020;-70
2022/04/22 01:02:47;;;;;;;0.00;0.00;;;9.70;99.90;;;;;;5131714;28;20053;-70
2022/04/22 01:10:53;;;;;;;0.00;0.00;;;9.60;99.90;;;;;;5131662;28;20039;-70
2022/04/22 01:13:20;;;;;;;0.00;0.00;;;9.60;99.90;;;;;;5130742;28;20103;-70
2022/04/22 01:15:46;;;;;;;0.00;0.00;;;9.50;99.90;;;;;;5131182;28;20071;-70
2022/04/22 01:18:13;;;;;;;0.00;0.00;;;9.50;99.90;;;;;;5133507;28;20074;-70
2022/04/22 01:20:39;;;;;;;0.00;0.00;;;9.50;99.90;;;;;;5128125;28;20008;-70
2022/04/22 01:23:04;;;;;;;0.00;0.00;;;9.50;99.90;;;;;;5129764;28;20044;-70
2022/04/22 01:25:30;;;;;;;0.00;0.00;;;9.50;99.90;;;;;;5131025;28;20035;-71
2022/04/22 01:27:57;;;;;;;0.00;0.00;;;9.50;99.90;;;;;;5118021;28;20032;-70
2022/04/22 01:30:23;;;;;;;0.00;0.00;;;9.50;99.90;;;;;;5131843;28;20042;-70
2022/04/22 01:32:54;;;;;;;0.00;0.00;;;9.40;99.90;;;;;;5124727;28;20483;-70
2022/04/22 01:35:21;;;;;;;0.00;0.00;;;9.40;99.90;;;;;;5126580;28;20126;-71
2022/04/22 01:37:47;;;;;;;0.00;0.00;;;9.30;99.90;;;;;;5121378;27;20028;-71
2022/04/22 01:40:14;;;;;;;0.00;0.00;;;9.30;99.90;;;;;;5126526;27;20032;-70
2022/04/22 01:42:41;;;;;;;0.00;0.00;;;9.30;99.90;;;;;;5125984;28;20020;-71
2022/04/22 01:45:08;;;;;;;0.00;0.00;;;9.30;99.90;;;;;;5120320;28;20035;-70
2022/04/22 01:47:34;;;;;;;0.00;0.00;;;9.30;99.90;;;;;;5126839;28;20026;-70
2022/04/22 01:50:00;;;;;;;0.00;0.00;;;9.20;99.90;;;;;;5125138;28;20039;-71
2022/04/22 01:52:26;;;;;;;0.00;0.00;;;9.20;99.90;;;;;;5125498;28;20042;-71
2022/04/22 01:54:56;;;;;;;0.00;0.00;;;9.10;99.90;;;;;;5125955;28;20036;-71
2022/04/22 01:57:22;;;;;;;0.00;0.00;;;9.10;99.90;;;;;;5129229;28;20036;-70
2022/04/22 01:59:48;;;;;;;;;;;9.10;99.90;;;;;;5128454;28;20024;-70
2022/04/22 02:02:15;;;;;;;0.00;0.00;;;9.00;99.90;;;;;;5128795;28;19979;-71
2022/04/22 02:04:41;;;;;;;0.00;0.00;;;9.00;99.90;;;;;;5117864;28;20073;-71
2022/04/22 02:07:07;;;;;;;0.00;0.00;;;8.90;99.90;;;;;;5129353;28;20012;-70
2022/04/22 02:09:32;;;;;;;0.00;0.00;;;8.90;99.90;;;;;;5128424;28;20117;-71
2022/04/22 02:11:58;;;;;;;0.00;0.00;;;8.90;99.90;;;;;;5114767;28;20046;-71
2022/04/22 02:14:25;;;;;;;0.00;0.00;;;8.90;99.90;;;;;;5128313;28;20072;-70
2022/04/22 02:16:51;;;;;;;0.00;0.00;;;8.80;99.90;;;;;;5127671;28;20016;-70
2022/04/22 02:19:18;;;;;;;0.00;0.00;;;8.80;99.90;;;;;;5123003;28;20092;-70
2022/04/22 02:21:44;;;;;;;0.00;0.00;;;8.80;99.90;;;;;;5131536;28;20027;-70
2022/04/22 02:24:09;;;;;;;0.00;0.00;;;8.80;99.90;;;;;;5126843;28;20008;-70
2022/04/22 02:29:19;;;;;;;0.00;0.00;;;8.70;99.90;;;;;;5126848;28;20034;-70
2022/04/22 02:31:46;;;;;;;0.00;0.00;;;8.70;99.90;;;;;;5121549;28;20032;-69
2022/04/22 02:34:12;;;;;;;0.00;0.00;;;8.70;99.90;;;;;;5125123;28;20087;-69
2022/04/22 02:36:41;;;;;;;0.00;0.00;;;8.70;99.90;;;;;;5125961;28;20031;-70
2022/04/22 02:39:09;;;;;;;0.00;0.00;;;8.70;99.90;;;;;;5101696;28;20060;-69
2022/04/22 02:47:04;;;;;;;0.00;0.00;;;8.60;99.90;;;;;;5131546;28;20061;-70
2022/04/22 02:49:30;;;;;;;0.00;0.00;;;8.60;99.90;;;;;;5119154;28;20408;-69
2022/04/22 02:51:56;;;;;;;0.00;0.00;;;8.50;99.90;;;;;;5130017;28;20019;-69
2022/04/22 02:54:21;;;;;;;;;;;8.60;99.90;;;;;;5136259;28;20059;-70
2022/04/22 02:56:50;;;;;;;0.00;0.00;;;8.50;99.90;;;;;;5123038;28;19938;-70
2022/04/22 02:59:20;;;;;;;0.00;0.00;;;8.50;99.90;;;;;;5132492;28;20043;-69
2022/04/22 03:01:45;;;;;;;0.00;0.00;;;8.50;99.90;;;;;;5129382;27;21077;-70
2022/04/22 03:04:12;;;;;;;0.00;0.00;;;8.50;99.90;;;;;;5131124;28;20003;-70
2022/04/22 03:06:38;;;;;;;0.00;0.00;;;8.50;99.90;;;;;;5132431;28;20083;-70
2022/04/22 03:09:04;;;;;;;0.00;0.00;;;8.40;99.90;;;;;;5128543;28;20066;-70
2022/04/22 03:11:30;;;;;;;0.00;0.00;;;8.50;99.90;;;;;;5128054;28;20039;-68
2022/04/22 03:13:56;;;;;;;0.00;0.00;;;8.40;99.90;;;;;;5117295;28;20012;-68
2022/04/22 03:16:26;;;;;;;0.00;0.00;;;8.30;99.90;;;;;;5123197;28;20044;-69
2022/04/22 03:18:52;;;;;;;0.00;0.00;;;8.30;99.90;;;;;;5127828;28;20027;-70
2022/04/22 03:21:17;;;;;;;0.00;0.00;;;8.30;99.90;;;;;;5127703;28;21166;-69
2022/04/22 03:23:43;;;;;;;0.00;0.00;;;8.30;99.90;;;;;;5131994;28;20027;-71
2022/04/22 03:26:09;;;;;;;0.00;0.00;;;8.20;99.90;;;;;;5128473;28;20031;-67
2022/04/22 03:28:34;;;;;;;0.00;0.00;;;8.20;99.90;;;;;;5122877;28;20040;-69
2022/04/22 03:31:00;;;;;;;0.00;0.00;;;8.20;99.90;;;;;;5123757;28;20032;-69
2022/04/22 03:33:26;;;;;;;0.00;0.00;;;8.20;99.90;;;;;;5121726;28;20064;-69
2022/04/22 03:35:52;;;;;;;0.00;0.00;;;8.30;99.90;;;;;;5120884;28;20050;-70
2022/04/22 03:38:24;;;;;;;0.00;0.00;;;8.30;99.90;;;;;;5126383;28;20046;-69
2022/04/22 03:40:51;;;;;;;0.00;0.00;;;8.10;99.90;;;;;;5127496;28;20028;-70
2022/04/22 03:43:19;;;;;;;0.00;0.00;;;8.10;99.90;;;;;;5133204;28;20003;-70
2022/04/22 03:45:45;;;;;;;0.00;0.00;;;8.10;99.90;;;;;;5123559;28;20107;-69
2022/04/22 03:48:13;;;;;;;0.00;0.00;;;8.10;99.90;;;;;;5130690;28;20028;-69
2022/04/22 03:50:40;;;;;;;0.00;0.00;;;8.10;99.90;;;;;;5133274;28;20039;-68
2022/04/22 03:53:06;;;;;;;0.00;0.00;;;8.00;99.90;;;;;;5125882;28;20012;-69
2022/04/22 03:55:33;;;;;;;0.00;0.00;;;8.00;99.90;;;;;;5119676;28;20036;-69
2022/04/22 03:58:10;;;;;;;;;;;8.00;99.90;;;;;;5127945;28;20020;-69
2022/04/22 04:00:39;;;;;;;;;;;8.10;99.90;;;;;;5126463;28;19907;-69
2022/04/22 04:03:07;;;;;;;0.00;0.00;;;8.10;99.90;;;;;;5128100;28;19950;-69
2022/04/22 04:05:33;;;;;;;0.00;0.00;;;8.10;99.90;;;;;;5129194;28;20032;-70
2022/04/22 04:07:59;;;;;;;0.00;0.00;;;8.10;99.90;;;;;;5118208;28;20092;-69
2022/04/22 04:16:00;;;;;;;0.00;0.00;;;8.10;99.90;;;;;;5129457;28;20035;-68
2022/04/22 04:18:27;;;;;;;0.00;0.00;;;8.10;99.90;;;;;;5129724;28;20030;-69
2022/04/22 04:23:37;;;;;;;0.00;0.00;;;8.20;99.90;;;;;;5131208;28;20112;-70
2022/04/22 04:26:04;;;;;;;0.00;0.00;;;8.20;99.90;;;;;;5119117;28;20024;-69
2022/04/22 04:28:32;;;;;;;0.00;0.00;;;8.20;99.90;;;;;;5131988;28;20469;-69
2022/04/22 04:30:58;;;;;;;0.00;0.00;;;8.20;99.90;;;;;;5130277;28;20084;-69
2022/04/22 04:33:24;;;;;;;0.00;0.00;;;8.20;99.90;;;;;;5131869;28;20035;-69
2022/04/22 04:35:50;;;;;;;0.00;0.00;;;8.10;99.90;;;;;;5134601;28;20023;-69
2022/04/22 04:38:16;;;;;;;;;;;8.10;99.90;;;;;;5125617;28;20036;-70
2022/04/22 04:40:43;;;;;;;0.00;0.00;;;8.20;99.90;;;;;;5127443;28;19896;-69
2022/04/22 04:43:08;;;;;;;;;;;8.10;99.90;;;;;;5119424;28;20035;-69
2022/04/22 04:45:35;;;;;;;0.00;0.00;;;8.10;99.90;;;;;;5127333;28;19898;-70
2022/04/22 04:48:02;;;;;;;0.00;0.00;;;8.10;99.90;;;;;;5136999;28;20020;-70
2022/04/22 04:50:28;;;;;;;0.00;0.00;;;8.10;99.90;;;;;;5133492;28;20023;-70
2022/04/22 04:52:54;;;;;;;0.00;0.00;;;8.10;99.90;;;;;;5125689;28;20032;-70
2022/04/22 04:55:20;;;;;;;0.00;0.00;;;8.10;99.90;;;;;;5122559;28;20031;-69
2022/04/22 04:57:46;;;;;;;0.00;0.00;;;8.10;99.90;;;;;;5126524;28;20028;-70
2022/04/22 05:00:12;;;;;;;;;;;8.20;99.90;;;;;;5128481;28;20038;-70
2022/04/22 05:02:39;;;;;;;0.00;0.00;;;8.30;99.90;;;;;;5126946;28;19911;-70
2022/04/22 05:05:06;;;;;;;0.00;0.00;;;8.30;99.90;;;;;;5121888;28;20011;-69
2022/04/22 05:07:33;;;;;;;0.00;0.00;;;8.20;99.90;;;;;;5125222;28;20220;-69
2022/04/22 05:09:59;;;;;;;0.00;0.00;;;8.20;99.90;;;;;;5131056;28;20080;-69
2022/04/22 05:12:24;;;;;;;0.00;0.00;;;8.20;99.90;;;;;;5130551;28;20038;-69
2022/04/22 05:14:50;;;;;;;0.00;0.00;;;8.30;99.90;;;;;;5128152;28;20017;-69
2022/04/22 05:17:18;;;;;;;0.00;0.00;;;8.30;99.90;;;;;;5132619;28;20016;-69
2022/04/22 05:19:44;;;;;;;0.00;0.00;;;8.30;99.90;;;;;;5138627;28;20042;-70
2022/04/22 05:22:10;;;;;;;0.00;0.00;;;8.30;99.90;;;;;;5130454;28;20019;-69
2022/04/22 05:24:37;;;;;;;0.00;0.00;;;8.40;99.90;;;;;;5129106;28;20040;-69
2022/04/22 05:27:04;;;;;;;0.00;0.00;;;8.40;99.90;;;;;;5122921;28;20020;-70
2022/04/22 05:34:58;;;;;;;0.00;0.00;;;8.40;99.90;;;;;;5129504;28;20031;-69
2022/04/22 05:37:23;;;;;;;0.00;0.00;;;8.50;99.90;;;;;;5125407;28;20087;-69
2022/04/22 05:39:49;;;;;;;0.00;0.00;;;8.60;99.90;;;;;;5126005;28;20484;-70
2022/04/22 05:42:14;;;;;;;0.00;0.00;;;8.70;99.90;;;;;;5128282;28;20104;-69
2022/04/22 05:44:40;;;;;;;0.00;0.00;;;8.70;99.90;;;;;;5124100;28;20027;-69
2022/04/22 05:47:07;;;;;;;0.00;0.00;;;8.80;99.90;;;;;;5135739;27;20021;-69
2022/04/22 05:49:33;;;;;;;0.00;0.00;;;8.80;99.90;;;;;;5131214;28;20035;-69
2022/04/22 05:51:58;;;;;;;0.00;0.00;;;8.80;99.90;;;;;;5128353;28;20071;-69
2022/04/22 05:54:24;;;;;;;0.00;0.00;;;8.80;99.90;;;;;;5125072;28;20023;-69
2022/04/22 05:56:49;;;;;;;0.00;0.00;;;8.90;99.90;;;;;;5121821;28;20040;-69
2022/04/22 05:59:15;;;;;;;0.00;0.00;;;8.90;99.90;;;;;;5125421;28;20028;-70
2022/04/22 06:01:41;;;;;;;0.00;0.00;;;8.90;99.90;;;;;;5135368;28;20043;-70
2022/04/22 06:04:06;;;;;;;0.00;0.00;;;9.00;99.90;;;;;;5121353;28;20023;-69
2022/04/22 06:06:32;;;;;;;0.00;0.00;;;8.90;99.90;;;;;;5136162;28;20088;-70
2022/04/22 06:11:42;;;;;;;0.00;0.00;;;8.90;99.90;;;;;;5117030;28;20031;-68
2022/04/22 06:14:09;;;;;;;;;;;8.90;99.90;;;;;;5133086;28;20030;-69
2022/04/22 06:16:35;;;;;;;0.00;0.00;;;8.90;99.90;;;;;;5134913;28;19908;-70
2022/04/22 06:19:01;;;;;;;0.00;0.00;;;8.90;99.90;;;;;;5115008;28;20042;-70
2022/04/22 06:21:29;;;;;;;0.00;0.00;;;8.90;99.90;;;;;;5122866;28;20075;-69
2022/04/22 06:23:54;;;;;;;0.00;0.00;;;8.90;99.90;;;;;;5118610;28;20038;-69
2022/04/22 06:26:20;;;;;;;0.00;0.00;;;9.00;99.90;;;;;;5122203;28;20063;-70
2022/04/22 06:28:46;;;;;;;0.00;0.00;;;9.00;99.90;;;;;;5121455;28;20055;-70
2022/04/22 06:31:12;;;;;;;0.00;0.00;;;9.10;99.90;;;;;;5131543;28;20035;-70
2022/04/22 06:33:38;;;;;;;0.00;0.00;;;9.10;99.90;;;;;;5132135;28;20062;-70
2022/04/22 06:36:06;;;;;;;;;;;9.00;99.90;;;;;;5120899;28;20157;-69
2022/04/22 06:38:34;;;;;;;0.00;0.00;;;9.10;99.90;;;;;;5126309;28;19907;-69
2022/04/22 06:46:28;;;;;;;0.00;0.00;;;9.20;99.90;;;;;;5108116;28;20092;-71
2022/04/22 06:48:54;;;;;;;0.00;0.00;;;9.30;99.90;;;;;;5109488;28;20107;-72
2022/04/22 06:51:22;;;;;;;0.00;0.00;;;9.40;99.90;;;;;;5106002;28;20469;-72
2022/04/22 06:53:50;;;;;;;0.00;0.00;;;9.40;99.90;;;;;;5112237;28;20032;-72
2022/04/22 06:56:21;;;;;;;0.00;0.00;;;9.40;99.90;;;;;;5111292;28;20016;-71
2022/04/22 06:58:48;;;;;;;0.00;0.00;;;9.50;99.90;;;;;;5104646;28;20031;-72
2022/04/22 07:01:14;;;;;;;0.00;0.00;;;9.60;99.90;;;;;;5108156;28;20436;-72
2022/04/22 07:03:40;;;;;;;0.00;0.00;;;9.60;99.90;;;;;;5111642;28;20027;-72
2022/04/22 07:06:06;;;;;;;0.00;0.00;;;9.70;99.90;;;;;;5106171;28;20503;-71
2022/04/22 07:08:32;;;;;;;;;;;9.80;99.90;;;;;;5108148;28;20028;-73
2022/04/22 07:11:02;;;;;;;0.00;0.00;;;9.90;99.90;;;;;;5112560;28;19922;-72
2022/04/22 07:13:29;;;;;;;0.00;0.00;;;10.00;99.90;;;;;;5110491;28;20461;-71
2022/04/22 07:15:59;;;;;;;0.00;0.00;;;10.10;99.90;;;;;;5102833;28;20393;-71
2022/04/22 07:18:25;;;;;;;0.00;0.00;;;10.20;99.90;;;;;;5107455;28;20043;-71
2022/04/22 07:20:51;;;;;;;;;;;10.30;99.90;;;;;;5109248;28;20016;-71
2022/04/22 07:23:16;;;;;;;0.00;0.00;;;10.30;99.90;;;;;;5119216;28;19929;-70
2022/04/22 07:25:45;;;;;;;0.00;0.00;;;10.30;99.90;;;;;;5120351;28;20032;-69
2022/04/22 07:28:13;;;;;;;0.00;0.00;;;10.30;99.90;;;;;;5122703;28;20051;-69
2022/04/22 07:30:40;;;;;;;0.00;0.00;;;10.30;99.90;;;;;;5126261;28;20098;-71
2022/04/22 07:33:06;;;;;;;;;;;10.50;99.90;;;;;;5125108;28;20024;-70
2022/04/22 07:35:32;;;;;;;0.00;0.00;;;10.60;99.90;;;;;;5124480;28;19907;-70
2022/04/22 07:37:58;;;;;;;;;;;10.60;99.90;;;;;;5130412;28;20279;-70
2022/04/22 07:40:24;;;;;;;0.00;0.00;;;10.60;99.90;;;;;;5128290;28;19918;-70
2022/04/22 07:48:25;;;;;;;0.00;0.00;;;10.60;99.90;;;;;;5127777;28;20095;-69
2022/04/22 07:50:52;;;;;;;0.00;0.00;;;10.50;99.90;;;;;;5137260;28;20014;-69
2022/04/22 07:53:18;;;;;;;0.00;0.00;;;10.50;99.90;;;;;;5135531;28;20024;-70
2022/04/22 07:55:44;;;;;;;0.00;0.00;;;10.70;99.90;;;;;;5133267;28;20021;-70
2022/04/22 07:58:12;;;;;;;0.00;0.00;;;10.70;99.90;;;;;;5128682;27;20092;-75
2022/04/22 08:00:38;;;;;;;0.00;0.00;;;10.70;99.90;;;;;;5113936;28;20020;-72
2022/04/22 08:03:04;;;;;;;;;;;10.70;99.90;;;;;;5111722;28;20024;-72
2022/04/22 08:05:31;;;;;;;0.00;0.00;;;10.80;99.90;;;;;;5103912;28;19908;-73
2022/04/22 08:07:57;;;;;;;0.00;0.00;;;10.80;99.90;;;;;;5107015;28;20047;-72
2022/04/22 08:10:23;;;;;;;0.00;0.00;;;10.80;99.90;;;;;;5102761;28;20056;-72
2022/04/22 08:12:49;;;;;;;0.00;0.00;;;10.80;99.90;;;;;;5099488;28;20040;-72
2022/04/22 08:15:15;;;;;;;0.00;0.00;;;10.90;99.90;;;;;;5121839;28;20032;-75
2022/04/22 08:17:40;;;;;;;0.00;0.00;;;10.90;99.90;;;;;;5113299;28;20024;-73
2022/04/22 08:20:07;;;;;;;0.00;0.00;;;11.00;99.90;;;;;;5112573;28;20107;-73
2022/04/22 08:22:36;;;;;;;0.00;0.00;;;11.00;99.90;;;;;;5111918;28;20031;-73
2022/04/22 08:25:04;;;;;;;0.00;0.00;;;11.00;99.90;;;;;;5111097;28;20027;-74
2022/04/22 08:27:29;;;;;;;0.00;0.00;;;11.00;99.90;;;;;;5111559;28;20158;-76
2022/04/22 08:29:55;;;;;;;0.00;0.00;;;11.30;99.90;;;;;;5100684;28;20103;-75
2022/04/22 08:32:24;;;;;;;0.00;0.00;;;11.30;99.90;;;;;;5115711;28;20111;-75
2022/04/22 08:34:51;;;;;;;0.00;0.00;;;11.40;99.90;;;;;;5107484;28;20034;-72
2022/04/22 08:37:17;;;;;;;0.00;0.00;;;11.50;99.90;;;;;;5127754;28;20024;-72
2022/04/22 08:39:43;;;;;;;;;;;11.70;99.90;;;;;;5103463;28;20123;-74
2022/04/22 08:42:12;;;;;;;0.00;0.00;;;11.70;99.90;;;;;;5127327;27;19931;-73
2022/04/22 08:44:38;;;;;;;0.00;0.00;;;11.60;99.90;;;;;;5109714;28;20044;-74
2022/04/22 08:50:09;;;;;;;0.00;0.00;;;11.70;99.90;;;;;;5104685;28;20039;-74
2022/04/22 08:52:36;;;;;;;0.00;0.00;;;11.60;99.90;;;;;;5100601;28;20104;-74
2022/04/22 08:55:09;;;;;;;0.00;0.00;;;11.60;99.90;;;;;;5113011;28;20138;-75
2022/04/22 08:57:35;;;;;;;0.00;0.00;;;11.60;99.90;;;;;;5109438;28;20039;-76
2022/04/22 09:00:03;;;;;;;;;;;11.70;99.90;;;;;;5105315;27;20023;-75
2022/04/22 09:02:29;;;;;;;0.00;0.00;;;11.80;99.90;;;;;;5106480;28;19934;-76
2022/04/22 09:04:56;;;;;;;0.00;0.00;;;11.80;99.90;;;;;;5098100;28;20016;-76
2022/04/22 09:07:28;;;;;;;0.00;0.00;;;11.80;99.90;;;;;;5115240;28;20084;-73
2022/04/22 09:09:54;;;;;;;0.00;0.00;;;11.90;99.90;;;;;;5110579;28;20047;-74
2022/04/22 09:12:21;;;;;;;;;;;12.00;99.90;;;;;;5105880;28;20361;-74
2022/04/22 09:14:50;;;;;;;0.00;0.00;;;12.00;99.90;;;;;;5103605;28;20280;-74
2022/04/22 09:17:27;;;;;;;0.00;0.00;;;12.00;99.90;;;;;;5101668;28;20027;-74
2022/04/22 09:19:55;;;;;;;0.00;0.00;;;12.10;99.90;;;;;;5096444;28;20103;-74
2022/04/22 09:22:25;;;;;;;0.00;0.00;;;12.10;99.90;;;;;;5109018;28;20485;-75
2022/04/22 09:24:53;;;;;;;0.00;0.00;;;12.20;99.90;;;;;;5100696;28;20066;-74
2022/04/22 09:27:29;;;;;;;0.00;0.00;;;12.30;99.90;;;;;;5097495;28;20025;-75
2022/04/22 09:29:56;;;;;;;0.00;0.00;;;12.20;99.90;;;;;;5096801;28;20020;-74
2022/04/22 09:32:23;;;;;;;0.00;0.00;;;12.40;99.90;;;;;;5108489;28;20066;-74
2022/04/22 09:34:49;;;;;;;0.00;0.00;;;12.50;99.90;;;;;;5097276;28;20084;-73
2022/04/22 09:43:01;;;;;;;0.00;0.00;;;12.60;99.90;;;;;;5097822;28;20135;-72
2022/04/22 09:45:40;;;;;;;0.00;0.00;;;12.70;99.90;;;;;;5104040;28;21013;-72
2022/04/22 09:48:18;;;;;;;0.00;0.00;;;12.70;99.90;;;;;;5109762;28;20028;-73
2022/04/22 09:50:52;;;;;;;0.00;0.00;;;12.70;99.90;;;;;;5097818;28;20478;-73
2022/04/22 09:53:19;;;;;;;0.00;0.00;;;12.70;99.90;;;;;;5101839;28;20028;-74
2022/04/22 09:55:53;;;;;;;0.00;0.00;;;12.90;99.90;;;;;;5102880;28;20550;-74
2022/04/22 09:58:26;;;;;;;0.00;0.00;;;13.00;99.90;;;;;;5094249;28;20023;-72
2022/04/22 10:00:58;;;;;;;0.00;0.00;;;13.20;99.90;;;;;;5098101;28;20435;-74
2022/04/22 10:03:28;;;;;;;0.00;0.00;;;13.40;99.90;;;;;;5107573;28;20042;-72
2022/04/22 10:05:55;;;;;;;0.00;0.00;;;13.50;99.90;;;;;;5099078;28;20036;-74
2022/04/22 10:08:22;;;;;;;0.00;0.00;;;13.60;99.90;;;;;;5107048;28;20028;-73
2022/04/22 10:10:51;;;;;;;0.00;0.00;;;13.80;99.90;;;;;;5109125;28;20458;-74
2022/04/22 10:13:21;;;;;;;0.00;0.00;;;13.70;99.90;;;;;;5112239;28;20107;-74
2022/04/22 10:15:48;;;;;;;0.00;0.00;;;13.70;99.90;;;;;;5108079;28;20039;-75
2022/04/22 10:18:14;;;;;;;0.00;0.00;;;13.70;99.90;;;;;;5105090;28;20142;-76
2022/04/22 10:20:44;;;;;;;0.00;0.00;;;13.70;99.90;;;;;;5109330;28;20046;-77
2022/04/22 10:23:10;;;;;;;0.00;0.00;;;13.80;99.90;;;;;;5107417;28;20218;-72
2022/04/22 10:25:36;;;;;;;0.00;0.00;;;13.90;99.90;;;;;;5119405;28;20024;-73
2022/04/22 10:28:07;;;;;;;0.00;0.00;;;13.90;99.90;;;;;;5117559;28;20034;-73
2022/04/22 10:30:37;;;;;;;0.00;0.00;;;13.80;99.90;;;;;;5113790;28;20221;-70
2022/04/22 10:33:03;;;;;;;0.00;0.00;;;14.20;99.90;;;;;;5116665;28;20026;-70
2022/04/22 10:35:29;;;;;;;;;;;14.40;99.90;;;;;;5122033;28;20030;-72
2022/04/22 10:37:58;;;;;;;0.00;0.00;;;14.70;99.90;;;;;;5132661;28;19895;-72
2022/04/22 10:40:26;;;;;;;0.00;0.00;;;14.80;99.90;;;;;;5128927;28;20016;-72
2022/04/22 10:42:53;;;;;;;0.00;0.00;;;14.70;99.90;;;;;;5121533;28;20040;-72
2022/04/22 10:48:27;;;;;;;0.00;0.00;;;14.60;99.90;;;;;;5126296;28;20036;-71
2022/04/22 10:50:58;;;;;;;0.00;0.00;;;14.60;99.90;;;;;;5133462;28;20055;-71
2022/04/22 10:53:26;;;;;;;0.00;0.00;;;14.50;99.90;;;;;;5128213;28;20032;-74
2022/04/22 10:55:53;;;;;;;0.00;0.00;;;14.50;99.90;;;;;;5127896;28;20027;-72
2022/04/22 10:58:21;;;;;;;0.00;0.00;;;14.50;99.90;;;;;;5129347;28;20022;-72
2022/04/22 11:00:49;;;;;;;0.00;0.00;;;14.30;99.90;;;;;;5120465;28;20028;-73
2022/04/22 11:03:15;;;;;;;0.00;0.00;;;14.30;99.90;;;;;;5113198;28;20034;-73
2022/04/22 11:05:51;;;;;;;0.00;0.00;;;14.40;99.90;;;;;;5107679;28;20035;-72
2022/04/22 11:08:18;;;;;;;0.00;0.00;;;14.50;99.90;;;;;;5111526;28;20471;-73
2022/04/22 11:10:44;;;;;;;0.00;0.00;;;14.60;99.90;;;;;;5108025;28;20059;-72
2022/04/22 11:13:32;;;;;;;0.00;0.00;;;14.70;99.90;;;;;;5108812;28;20024;-72
2022/04/22 11:16:08;;;;;;;0.00;0.00;;;14.70;99.90;;;;;;5115665;28;20035;-72
2022/04/22 11:18:35;;;;;;;;;;;14.70;99.90;;;;;;5103061;28;20036;-73
2022/04/22 11:21:02;;;;;;;0.00;0.00;;;14.60;99.90;;;;;;5108052;28;19915;-71
2022/04/22 11:23:44;;;;;;;0.00;0.00;;;14.30;99.90;;;;;;5111709;28;20100;-71
2022/04/22 11:26:13;;;;;;;0.00;0.00;;;14.10;99.90;;;;;;5112324;28;20054;-71
2022/04/22 11:28:40;;;;;;;0.00;0.00;;;14.10;99.90;;;;;;5109740;28;20054;-71
2022/04/22 11:31:09;;;;;;;0.00;0.00;;;14.20;99.90;;;;;;5108698;28;20084;-71
2022/04/22 11:33:45;;;;;;;0.00;0.00;;;14.10;99.90;;;;;;5104415;28;20164;-71
2022/04/22 11:36:14;;;;;;;0.00;0.00;;;14.10;99.90;;;;;;5102259;28;20028;-71
2022/04/22 11:38:50;;;;;;;0.00;0.00;;;14.10;99.90;;;;;;5097869;28;20081;-72
2022/04/22 11:41:17;;;;;;;0.00;0.00;;;14.00;99.90;;;;;;5105326;28;20020;-72
2022/04/22 11:43:43;;;;;;;0.00;0.00;;;14.10;99.90;;;;;;5097132;28;20043;-70
2022/04/22 11:46:17;;;;;;;0.00;0.00;;;14.20;99.90;;;;;;5113696;28;20054;-71
2022/04/22 11:48:54;;;;;;;0.00;0.00;;;14.30;99.90;;;;;;5119722;28;20066;-71
2022/04/22 11:51:21;;;;;;;0.00;0.00;;;14.30;99.90;;;;;;5109712;28;20100;-72
2022/04/22 11:53:51;;;;;;;0.00;0.00;;;14.40;99.90;;;;;;5113201;28;20040;-71
2022/04/22 11:56:23;;;;;;;0.00;0.00;;;14.50;99.90;;;;;;5109932;28;20023;-71
2022/04/22 11:58:59;;;;;;;0.00;0.00;;;14.60;99.90;;;;;;5104427;28;20028;-72
2022/04/22 12:10:03;;;;;;;0.00;0.00;;;14.90;99.90;;;;;;5110158;28;20447;-71
2022/04/22 12:12:29;;;;;;;0.00;0.00;;;15.10;99.90;;;;;;5109529;28;20055;-70
2022/04/22 12:15:18;;;;;;;0.00;0.00;;;15.00;99.90;;;;;;5106823;28;20024;-72
2022/04/22 12:17:45;;;;;;;0.00;0.00;;;15.10;99.90;;;;;;5105063;28;20020;-71
2022/04/22 12:20:11;;;;;;;0.00;0.00;;;15.10;99.90;;;;;;5102710;28;20024;-71
2022/04/22 12:22:37;;;;;;;0.00;0.00;;;15.00;99.90;;;;;;5105037;28;20040;-71
2022/04/22 12:25:11;;;;;;;0.00;0.00;;;15.00;99.90;;;;;;5109829;28;20092;-72
2022/04/22 12:27:38;;;;;;;0.00;0.00;;;15.10;99.90;;;;;;5103030;28;20060;-73
2022/04/22 12:30:09;;;;;;;0.00;0.00;;;14.90;99.90;;;;;;5105868;28;20024;-73
2022/04/22 12:32:37;;;;;;;0.00;0.00;;;14.80;99.90;;;;;;5108423;28;20077;-73
2022/04/22 12:35:12;;;;;;;0.00;0.00;;;14.70;99.90;;;;;;5100815;28;20166;-73
2022/04/22 12:37:44;;;;;;;0.00;0.00;;;15.00;99.90;;;;;;5114347;28;20380;-72
2022/04/22 12:40:11;;;;;;;0.00;0.00;;;15.20;99.90;;;;;;5108735;28;20059;-74
2022/04/22 12:42:39;;;;;;;0.00;0.00;;;15.10;99.90;;;;;;5107738;28;20027;-72
2022/04/22 12:54:07;;;;;;;0.00;0.00;;;15.00;99.90;;;;;;5101544;28;20062;-75
2022/04/22 12:56:36;;;;;;;0.00;0.00;;;15.00;99.90;;;;;;5102232;28;20020;-74
2022/04/22 12:59:03;;;;;;;0.00;0.00;;;15.00;99.90;;;;;;5109734;28;20395;-75
2022/04/22 13:01:37;;;;;;;0.00;0.00;;;15.30;99.90;;;;;;5107365;28;20035;-75
2022/04/22 13:04:04;;;;;;;0.00;0.00;;;15.50;99.90;;;;;;5106171;28;20020;-76
2022/04/22 13:06:39;;;;;;;0.00;0.00;;;15.70;99.90;;;;;;5108985;28;20028;-75
2022/04/22 13:09:06;;;;;;;0.00;0.00;;;15.70;99.90;;;;;;5103170;28;20614;-75
2022/04/22 13:11:33;;;;;;;0.00;0.00;;;15.70;99.90;;;;;;5110314;28;20115;-75
2022/04/22 13:13:59;;;;;;;0.00;0.00;;;15.90;99.90;;;;;;5106266;28;20448;-73
2022/04/22 13:16:24;;;;;;;0.00;0.00;;;15.80;99.90;;;;;;5103597;28;20098;-75
2022/04/22 13:18:50;;;;;;;0.00;0.00;;;15.90;99.90;;;;;;5108560;28;20035;-75
2022/04/22 13:21:16;;;;;;;;;;;15.90;99.90;;;;;;5106276;28;20084;-74
2022/04/22 13:23:41;;;;;;;0.00;0.00;;;15.80;99.90;;;;;;5106866;28;20319;-75
2022/04/22 13:26:07;;;;;;;0.00;0.00;;;15.70;99.90;;;;;;5106333;28;20040;-75
2022/04/22 13:28:33;;;;;;;0.00;0.00;;;15.70;99.90;;;;;;5106294;28;20538;-74
2022/04/22 13:30:59;;;;;;;0.00;0.00;;;15.70;99.90;;;;;;5102052;28;20032;-75
2022/04/22 13:33:25;;;;;;;0.00;0.00;;;15.70;99.90;;;;;;5110017;28;20049;-75
2022/04/22 13:35:52;;;;;;;0.00;0.00;;;15.80;99.90;;;;;;5108614;28;20035;-74
2022/04/22 13:38:18;;;;;;;0.00;0.00;;;15.90;99.90;;;;;;5106366;28;20042;-74
2022/04/22 13:40:43;;;;;;;0.00;0.00;;;16.00;99.90;;;;;;5104565;28;20028;-73
2022/04/22 13:43:09;;;;;;;0.00;0.00;;;15.90;99.90;;;;;;5102804;28;20024;-74
2022/04/22 13:53:47;;;;;;;0.00;0.00;;;16.70;99.90;;;;;;5104148;28;20039;-73
2022/04/22 13:56:13;;;;;;;0.00;0.00;;;16.90;99.90;;;;;;5108657;28;20456;-74
2022/04/22 13:58:39;;;;;;;0.00;0.00;;;17.00;99.90;;;;;;5100311;28;20407;-74
2022/04/22 14:01:05;;;;;;;;;;;16.90;99.90;;;;;;5104953;28;20046;-73
2022/04/22 14:03:31;;;;;;;0.00;0.00;;;16.70;99.90;;;;;;5106156;28;19908;-74
2022/04/22 14:05:57;;;;;;;0.00;0.00;;;16.70;99.90;;;;;;5111808;28;20107;-73
2022/04/22 14:08:23;;;;;;;;;;;16.60;99.90;;;;;;5111843;28;20034;-72
2022/04/22 14:10:49;;;;;;;0.00;0.00;;;16.70;99.90;;;;;;5109872;28;19916;-72
2022/04/22 14:13:15;;;;;;;0.00;0.00;;;16.90;99.90;;;;;;5112598;28;20384;-72
2022/04/22 14:15:42;;;;;;;0.00;0.00;;;17.00;99.90;;;;;;5109981;28;20130;-73
2022/04/22 14:18:08;;;;;;;0.00;0.00;;;17.40;99.90;;;;;;5107616;28;20043;-73